Time;durP1;ratioP1;P1;durP2;ratioP2;P2;SDS_P1;SDS_P2;PMS_P1;PMS_P2;Temp;Humidity;BMP_temperature;BMP_pressure;BME280_temperature;BME280_humidity;BME280_pressure;Samples;Min_cycle;Max_cycle;Signal;HPM_P1;HPM_P2
2023/01/01 00:01:14;;;;;;;10.02;3.28;;;20.40;99.90;;;;;;5082888;28;20065;-68
2023/01/01 00:03:41;;;;;;;13.30;3.78;;;20.30;99.90;;;;;;5076152;28;20096;-67
2023/01/01 00:06:12;;;;;;;8.75;3.60;;;20.10;99.90;;;;;;5077231;28;20092;-67
2023/01/01 00:08:39;;;;;;;15.45;3.60;;;20.10;99.90;;;;;;5081222;28;20114;-71
2023/01/01 00:11:07;;;;;;;11.68;3.83;;;20.00;99.90;;;;;;5078676;28;20069;-69
2023/01/01 00:13:36;;;;;;;11.25;4.38;;;19.80;99.90;;;;;;5079729;28;20088;-69
2023/01/01 00:16:11;;;;;;;14.57;4.57;;;19.80;99.90;;;;;;5077623;28;20437;-67
2023/01/01 00:18:37;;;;;;;14.52;5.65;;;20.20;99.90;;;;;;5080564;28;20141;-68
2023/01/01 00:21:04;;;;;;;12.68;4.15;;;19.70;99.90;;;;;;5081792;28;20084;-66
2023/01/01 00:23:31;;;;;;;8.65;4.47;;;19.50;99.90;;;;;;5081164;28;20075;-67
2023/01/01 00:25:58;;;;;;;14.07;4.47;;;19.40;99.90;;;;;;5074474;28;20072;-67
2023/01/01 00:28:25;;;;;;;9.52;4.82;;;19.90;99.90;;;;;;5074644;28;20085;-64
2023/01/01 00:30:51;;;;;;;14.77;7.30;;;19.40;99.90;;;;;;5078046;28;21874;-68
2023/01/01 00:33:18;;;;;;;13.05;5.43;;;19.30;99.90;;;;;;5078267;28;20115;-67
2023/01/01 00:35:44;;;;;;;15.60;4.72;;;19.30;99.90;;;;;;5076231;28;20674;-68
2023/01/01 00:38:11;;;;;;;7.68;4.15;;;19.20;99.90;;;;;;5077533;28;20072;-68
2023/01/01 00:40:37;;;;;;;12.93;4.53;;;19.50;99.90;;;;;;5072688;28;20075;-67
2023/01/01 00:43:04;;;;;;;16.55;5.07;;;19.10;99.90;;;;;;5076702;28;20110;-67
2023/01/01 00:45:30;;;;;;;14.18;4.13;;;19.00;99.90;;;;;;5080863;28;20096;-67
2023/01/01 00:47:56;;;;;;;13.43;5.00;;;19.00;99.90;;;;;;5078113;28;20084;-67
2023/01/01 00:50:23;;;;;;;17.88;5.00;;;18.90;99.90;;;;;;5077829;28;20092;-68
2023/01/01 00:52:50;;;;;;;12.57;5.00;;;18.90;99.90;;;;;;5078209;28;20077;-67
2023/01/01 00:55:17;;;;;;;13.32;5.03;;;18.80;99.90;;;;;;5074601;28;20453;-66
2023/01/01 00:57:43;;;;;;;13.65;5.15;;;19.00;99.90;;;;;;5080176;28;20092;-69
2023/01/01 01:00:10;;;;;;;16.38;6.38;;;18.50;99.90;;;;;;5078591;28;20542;-68
2023/01/01 01:02:37;;;;;;;13.75;5.38;;;18.90;99.90;;;;;;5081827;28;20071;-67
2023/01/01 01:05:03;;;;;;;13.10;5.30;;;18.30;99.90;;;;;;5075637;28;20165;-67
2023/01/01 01:07:35;;;;;;;17.65;5.65;;;18.90;99.90;;;;;;5079739;28;20403;-66
2023/01/01 01:10:02;;;;;;;15.07;6.63;;;18.50;99.90;;;;;;5080239;28;20138;-67
2023/01/01 01:12:28;;;;;;;12.63;6.53;;;18.50;99.90;;;;;;5079811;28;20076;-65
2023/01/01 01:14:54;;;;;;;14.13;6.43;;;18.40;99.90;;;;;;5082928;28;20073;-67
2023/01/01 01:17:21;;;;;;;15.05;5.97;;;18.40;99.90;;;;;;5081565;28;20434;-66
2023/01/01 01:19:47;;;;;;;13.95;5.93;;;18.30;99.90;;;;;;5081245;28;20255;-66
2023/01/01 01:22:14;;;;;;;13.73;6.60;;;18.20;99.90;;;;;;5084205;28;20107;-69
2023/01/01 01:24:40;;;;;;;14.48;7.03;;;18.20;99.90;;;;;;5085259;28;20092;-68
2023/01/01 01:27:06;;;;;;;15.52;7.07;;;18.20;99.90;;;;;;5080578;28;20522;-68
2023/01/01 01:29:33;;;;;;;19.48;8.90;;;18.10;99.90;;;;;;5083803;28;20073;-69
2023/01/01 01:31:59;;;;;;;21.67;9.25;;;18.00;99.90;;;;;;5076533;28;20453;-67
2023/01/01 01:34:26;;;;;;;23.05;9.57;;;18.00;99.90;;;;;;5085643;28;20084;-68
2023/01/01 01:36:52;;;;;;;22.05;9.85;;;18.10;99.90;;;;;;5083751;28;20124;-74
2023/01/01 01:39:18;;;;;;;20.27;10.20;;;18.00;99.90;;;;;;5084015;28;20441;-70
2023/01/01 01:41:45;;;;;;;25.83;11.57;;;17.90;99.90;;;;;;5079767;28;20093;-70
2023/01/01 01:44:46;;;;;;;22.75;11.48;;;17.80;99.90;;;;;;5082792;28;20116;-70
2023/01/01 01:47:43;;;;;;;27.33;11.18;;;17.80;99.90;;;;;;5080444;28;20085;-69
2023/01/01 01:50:38;;;;;;;25.27;10.53;;;17.80;99.90;;;;;;5080224;28;20072;-71
2023/01/01 01:53:32;;;;;;;25.98;11.18;;;17.70;99.90;;;;;;5041000;28;20086;-70
2023/01/01 01:56:14;;;;;;;25.90;12.05;;;17.60;99.90;;;;;;5035306;28;20555;-68
2023/01/01 01:58:40;;;;;;;26.30;12.23;;;17.60;99.90;;;;;;5022035;28;20121;-67
2023/01/01 02:01:07;;;;;;;28.08;13.60;;;17.60;99.90;;;;;;5040225;28;20212;-70
2023/01/01 02:03:52;;;;;;;30.58;14.55;;;17.60;99.90;;;;;;5039622;28;20131;-69
2023/01/01 02:06:19;;;;;;;39.70;16.80;;;17.50;99.90;;;;;;5038437;28;20070;-67
2023/01/01 02:08:46;;;;;;;30.38;17.35;;;17.50;99.90;;;;;;5039606;28;20104;-65
2023/01/01 02:11:13;;;;;;;48.97;23.25;;;17.40;99.90;;;;;;5030897;28;20128;-66
2023/01/01 02:13:39;;;;;;;46.75;25.35;;;17.40;99.90;;;;;;5037736;28;20100;-64
2023/01/01 02:16:11;;;;;;;48.83;27.85;;;17.40;99.90;;;;;;5046389;28;20089;-65
2023/01/01 02:18:50;;;;;;;50.25;31.83;;;17.30;99.90;;;;;;5036531;28;20074;-65
2023/01/01 02:21:29;;;;;;;63.53;34.03;;;17.20;99.90;;;;;;5032086;28;20105;-64
2023/01/01 02:24:24;;;;;;;54.20;33.22;;;17.20;99.90;;;;;;5031745;28;20575;-64
2023/01/01 02:27:08;;;;;;;56.28;33.13;;;17.20;99.90;;;;;;4998404;28;20107;-65
2023/01/01 02:29:38;;;;;;;58.30;37.72;;;17.20;99.90;;;;;;5056726;28;20138;-65
2023/01/01 02:32:43;;;;;;;74.72;43.67;;;17.20;99.90;;;;;;5072291;28;20161;-65
2023/01/01 02:35:37;;;;;;;73.80;44.75;;;17.10;99.90;;;;;;5002097;28;20090;-65
2023/01/01 02:38:18;;;;;;;75.47;46.65;;;17.10;99.90;;;;;;4993038;28;20436;-66
2023/01/01 02:40:48;;;;;;;76.28;45.72;;;17.10;99.90;;;;;;4994440;28;20510;-67
2023/01/01 02:43:15;;;;;;;67.68;42.03;;;17.00;99.90;;;;;;4989438;28;20086;-67
2023/01/01 02:45:41;;;;;;;59.30;37.75;;;17.00;99.90;;;;;;4996670;28;20098;-64
2023/01/01 02:48:40;;;;;;;72.40;38.10;;;17.00;99.90;;;;;;4998157;28;20103;-65
2023/01/01 02:51:29;;;;;;;56.45;33.75;;;16.90;99.90;;;;;;4987440;28;20086;-65
2023/01/01 02:54:08;;;;;;;53.55;32.55;;;16.90;99.90;;;;;;4961479;28;20595;-65
2023/01/01 02:56:37;;;;;;;59.22;33.22;;;16.90;99.90;;;;;;4991321;28;20101;-65
2023/01/01 03:02:49;;;;;;;61.25;36.53;;;16.70;99.90;;;;;;4996958;28;20089;-65
2023/01/01 03:06:21;;;;;;;61.33;33.92;;;16.70;99.90;;;;;;5003837;28;20102;-65
2023/01/01 03:08:40;;;;;;;70.75;36.88;;;16.80;99.90;;;;;;4994405;28;20482;-65
2023/01/01 03:11:14;;;;;;;55.97;34.78;;;16.70;99.90;;;;;;5050601;28;20077;-67
2023/01/01 03:13:47;;;;;;;60.97;33.92;;;16.70;99.90;;;;;;5070366;28;20587;-65
2023/01/01 03:16:14;;;;;;;64.50;38.75;;;16.70;99.90;;;;;;5072815;28;20119;-66
2023/01/01 03:18:46;;;;;;;;;;;16.80;99.90;;;;;;5070825;28;20072;-65
2023/01/01 03:21:16;;;;;;;60.50;35.17;;;16.70;99.90;;;;;;5088507;28;20009;-65
2023/01/01 03:23:48;;;;;;;64.32;34.53;;;16.60;99.90;;;;;;5078034;28;20064;-65
2023/01/01 03:26:18;;;;;;;62.10;36.33;;;16.60;99.90;;;;;;5069989;28;20069;-68
2023/01/01 03:28:50;;;;;;;68.35;35.38;;;16.60;99.90;;;;;;5068925;28;20510;-65
2023/01/01 03:31:21;;;;;;;69.22;37.53;;;16.60;99.90;;;;;;5084560;28;20479;-65
2023/01/01 03:33:53;;;;;;;69.93;34.58;;;16.60;99.90;;;;;;5079797;28;20127;-64
2023/01/01 03:36:36;;;;;;;67.40;36.75;;;16.50;99.90;;;;;;5073271;28;20448;-66
2023/01/01 03:39:42;;;;;;;62.30;38.17;;;16.50;99.90;;;;;;5070107;28;20081;-64
2023/01/01 03:42:35;;;;;;;76.85;40.38;;;16.40;99.90;;;;;;5010588;28;20089;-65
2023/01/01 03:45:08;;;;;;;67.32;36.05;;;16.40;99.90;;;;;;5008170;28;20110;-65
2023/01/01 03:47:34;;;;;;;83.25;40.33;;;16.40;99.90;;;;;;5013118;28;20555;-64
2023/01/01 03:50:02;;;;;;;89.40;50.40;;;16.30;99.90;;;;;;5021939;28;20090;-65
2023/01/01 03:52:54;;;;;;;90.05;51.80;;;16.30;99.90;;;;;;5022271;28;20087;-65
2023/01/01 03:55:40;;;;;;;96.05;51.70;;;16.30;99.90;;;;;;5022297;28;20101;-65
2023/01/01 03:58:34;;;;;;;83.25;49.85;;;16.30;99.90;;;;;;4993881;28;20086;-67
2023/01/01 04:01:26;;;;;;;82.88;48.63;;;16.30;99.90;;;;;;5018164;28;20212;-63
2023/01/01 04:03:53;;;;;;;86.53;53.65;;;16.30;99.90;;;;;;5016023;28;20128;-66
2023/01/01 04:06:19;;;;;;;92.43;53.67;;;16.30;99.90;;;;;;5007656;28;20157;-65
2023/01/01 04:08:47;;;;;;;85.03;50.67;;;16.20;99.90;;;;;;5009225;28;20096;-66
2023/01/01 04:14:05;;;;;;;90.63;46.08;;;16.20;99.90;;;;;;5016749;28;20165;-73
2023/01/01 04:16:31;;;;;;;63.03;41.60;;;16.10;99.90;;;;;;5020959;28;20598;-69
2023/01/01 04:18:58;;;;;;;66.32;40.42;;;16.20;99.90;;;;;;5078210;28;20081;-71
2023/01/01 04:21:24;;;;;;;68.45;41.47;;;16.30;99.90;;;;;;5076288;28;20126;-73
2023/01/01 04:23:51;;;;;;;75.63;42.55;;;16.20;99.90;;;;;;5068074;28;20101;-68
2023/01/01 04:26:17;;;;;;;74.40;46.55;;;16.30;99.90;;;;;;5076634;28;20107;-71
2023/01/01 04:28:44;;;;;;;89.63;54.85;;;16.30;99.90;;;;;;5073046;28;20418;-69
2023/01/01 04:31:10;;;;;;;98.53;59.92;;;16.30;99.90;;;;;;5071996;28;20138;-71
2023/01/01 04:33:37;;;;;;;89.38;55.50;;;16.30;99.90;;;;;;5072679;28;20069;-66
2023/01/01 04:36:06;;;;;;;80.65;53.17;;;16.40;99.90;;;;;;5087007;28;20069;-70
2023/01/01 04:38:33;;;;;;;76.93;45.60;;;16.30;99.90;;;;;;5071161;28;20723;-67
2023/01/01 04:41:01;;;;;;;71.57;43.58;;;16.30;99.90;;;;;;5074164;28;20073;-68
2023/01/01 04:43:29;;;;;;;59.40;39.85;;;16.30;99.90;;;;;;5076512;28;20088;-71
2023/01/01 04:45:59;;;;;;;67.32;40.65;;;16.30;99.90;;;;;;5080110;28;20085;-65
2023/01/01 04:48:27;;;;;;;60.85;39.85;;;16.40;99.90;;;;;;5075178;28;20092;-65
2023/01/01 04:50:56;;;;;;;63.20;39.97;;;16.40;99.90;;;;;;5080683;28;20080;-65
2023/01/01 04:53:22;;;;;;;66.57;40.70;;;16.30;99.90;;;;;;5077575;28;20156;-63
2023/01/01 04:55:49;;;;;;;69.97;45.60;;;16.40;99.90;;;;;;5076822;28;20080;-66
2023/01/01 04:58:15;;;;;;;77.78;48.85;;;16.40;99.90;;;;;;5084802;28;20084;-66
2023/01/01 05:00:42;;;;;;;71.97;48.35;;;16.40;99.90;;;;;;5085096;28;20085;-64
2023/01/01 05:03:08;;;;;;;74.93;53.90;;;16.40;99.90;;;;;;5080421;28;20563;-62
2023/01/01 05:05:34;;;;;;;86.28;61.38;;;16.40;99.90;;;;;;5080309;28;20103;-65
2023/01/01 05:08:01;;;;;;;90.13;62.85;;;16.40;99.90;;;;;;5081757;28;20095;-65
2023/01/01 05:10:28;;;;;;;102.28;75.28;;;16.40;99.90;;;;;;5084336;28;20084;-65
2023/01/01 05:12:54;;;;;;;95.10;73.25;;;16.30;99.90;;;;;;5083621;28;20072;-62
2023/01/01 05:15:21;;;;;;;90.53;68.18;;;16.40;99.90;;;;;;5083732;28;20079;-66
2023/01/01 05:17:47;;;;;;;83.70;64.95;;;16.30;99.90;;;;;;5082033;28;20089;-61
2023/01/01 05:20:13;;;;;;;70.32;52.10;;;16.30;99.90;;;;;;5084160;28;20440;-63
2023/01/01 05:22:40;;;;;;;73.85;55.88;;;16.30;99.90;;;;;;5078882;28;20080;-62
2023/01/01 05:25:06;;;;;;;64.35;45.25;;;16.40;99.90;;;;;;5083709;28;20115;-62
2023/01/01 05:27:33;;;;;;;58.88;41.63;;;16.30;99.90;;;;;;5082627;28;20065;-63
2023/01/01 05:29:59;;;;;;;51.17;37.17;;;16.40;99.90;;;;;;5079867;28;20065;-64
2023/01/01 05:32:27;;;;;;;54.63;40.25;;;16.40;99.90;;;;;;5086439;28;20073;-63
2023/01/01 05:34:53;;;;;;;56.63;40.90;;;16.40;99.90;;;;;;5076067;28;20075;-64
2023/01/01 05:37:20;;;;;;;52.83;38.30;;;16.30;99.90;;;;;;5079356;28;20591;-63
2023/01/01 05:39:48;;;;;;;53.25;36.85;;;16.30;99.90;;;;;;5081231;28;20110;-63
2023/01/01 05:42:14;;;;;;;55.35;37.30;;;16.30;99.90;;;;;;5077563;28;20471;-63
2023/01/01 05:44:40;;;;;;;54.58;37.33;;;16.30;99.90;;;;;;5081065;28;20152;-64
2023/01/01 05:47:07;;;;;;;52.45;34.35;;;16.30;99.90;;;;;;5078612;28;20165;-62
2023/01/01 05:49:35;;;;;;;58.00;39.25;;;16.30;99.90;;;;;;5080046;28;20104;-61
2023/01/01 05:52:01;;;;;;;61.88;45.78;;;16.30;99.90;;;;;;5082236;28;20415;-63
2023/01/01 05:54:28;;;;;;;54.63;39.17;;;16.20;99.90;;;;;;5084053;28;20077;-63
2023/01/01 05:56:54;;;;;;;54.95;36.70;;;16.20;99.90;;;;;;5079455;28;20079;-63
2023/01/01 05:59:20;;;;;;;56.85;37.22;;;16.20;99.90;;;;;;5080935;28;20132;-64
2023/01/01 06:01:47;;;;;;;55.10;40.28;;;16.20;99.90;;;;;;5079153;28;20081;-62
2023/01/01 06:04:13;;;;;;;55.15;37.63;;;16.20;99.90;;;;;;5081960;28;20499;-63
2023/01/01 06:06:40;;;;;;;50.80;35.72;;;16.10;99.90;;;;;;5082572;28;20157;-63
2023/01/01 06:09:06;;;;;;;43.15;30.10;;;16.10;99.90;;;;;;5085011;28;20178;-63
2023/01/01 06:11:33;;;;;;;40.38;27.20;;;16.10;99.90;;;;;;5080484;28;20164;-62
2023/01/01 06:14:00;;;;;;;43.53;23.83;;;16.00;99.90;;;;;;5075169;28;20081;-62
2023/01/01 06:16:28;;;;;;;36.03;23.50;;;16.00;99.90;;;;;;5079495;28;20069;-62
2023/01/01 06:18:54;;;;;;;40.40;27.50;;;16.00;99.90;;;;;;5080941;28;20436;-61
2023/01/01 06:21:23;;;;;;;39.58;24.48;;;16.00;99.90;;;;;;5081306;28;20130;-63
2023/01/01 06:23:50;;;;;;;39.00;25.88;;;15.90;99.90;;;;;;5083285;28;20122;-61
2023/01/01 06:26:21;;;;;;;43.35;24.75;;;15.90;99.90;;;;;;5075959;28;20616;-63
2023/01/01 06:28:49;;;;;;;38.47;23.70;;;15.90;99.90;;;;;;5076143;28;20084;-62
2023/01/01 06:31:17;;;;;;;40.33;24.73;;;15.90;99.90;;;;;;5080517;28;20099;-61
2023/01/01 06:33:44;;;;;;;39.13;23.65;;;15.80;99.90;;;;;;5081942;28;20073;-63
2023/01/01 06:36:12;;;;;;;35.35;23.55;;;15.80;99.90;;;;;;5080017;28;20108;-64
2023/01/01 06:38:41;;;;;;;39.30;23.92;;;15.80;99.90;;;;;;5077539;28;20131;-63
2023/01/01 06:41:11;;;;;;;39.60;22.48;;;15.90;99.90;;;;;;5078364;28;20565;-63
2023/01/01 06:43:37;;;;;;;35.00;22.50;;;15.80;99.90;;;;;;5079627;28;20077;-62
2023/01/01 06:46:05;;;;;;;31.60;20.05;;;15.80;99.90;;;;;;5079135;28;20521;-64
2023/01/01 06:48:34;;;;;;;32.85;19.42;;;15.80;99.90;;;;;;5082256;28;20088;-63
2023/01/01 06:51:11;;;;;;;26.58;18.33;;;15.80;99.90;;;;;;5083309;28;20073;-63
2023/01/01 06:53:38;;;;;;;29.63;18.83;;;15.80;99.90;;;;;;5080402;28;20072;-61
2023/01/01 06:56:05;;;;;;;27.95;20.08;;;15.80;99.90;;;;;;5078691;28;21562;-62
2023/01/01 06:58:32;;;;;;;36.50;21.23;;;15.80;99.90;;;;;;5081269;28;20118;-63
2023/01/01 07:01:18;;;;;;;32.60;20.35;;;15.80;99.90;;;;;;5081626;28;20081;-63
2023/01/01 07:03:50;;;;;;;37.50;22.23;;;15.70;99.90;;;;;;5079644;28;20103;-66
2023/01/01 07:06:17;;;;;;;37.50;23.70;;;15.70;99.90;;;;;;5078002;28;20155;-65
2023/01/01 07:08:43;;;;;;;41.20;24.33;;;15.80;99.90;;;;;;5083560;28;20157;-66
2023/01/01 07:11:09;;;;;;;38.17;25.20;;;15.80;99.90;;;;;;5078863;28;20429;-67
2023/01/01 07:13:36;;;;;;;46.10;30.75;;;15.80;99.90;;;;;;5085826;28;20129;-65
2023/01/01 07:16:03;;;;;;;47.53;29.67;;;15.70;99.90;;;;;;5079962;28;20065;-66
2023/01/01 07:18:29;;;;;;;51.60;28.85;;;15.70;99.90;;;;;;5076011;28;20132;-66
2023/01/01 07:20:58;;;;;;;50.40;38.40;;;15.70;99.90;;;;;;5085669;28;20099;-64
2023/01/01 07:23:26;;;;;;;54.42;42.22;;;15.70;99.90;;;;;;5070094;28;20073;-63
2023/01/01 07:25:53;;;;;;;48.00;36.25;;;15.70;99.90;;;;;;5073842;28;20136;-63
2023/01/01 07:28:21;;;;;;;55.47;37.20;;;15.70;99.90;;;;;;5070499;28;20118;-63
2023/01/01 07:30:47;;;;;;;47.10;33.53;;;15.80;99.90;;;;;;5079595;28;20066;-64
2023/01/01 07:33:17;;;;;;;52.00;36.33;;;15.80;99.90;;;;;;5072056;28;20081;-63
2023/01/01 07:35:44;;;;;;;52.00;35.97;;;15.70;99.90;;;;;;5074746;28;20160;-63
2023/01/01 07:38:11;;;;;;;48.70;35.47;;;15.80;99.90;;;;;;5078790;28;20187;-63
2023/01/01 07:40:38;;;;;;;53.15;42.25;;;15.80;99.90;;;;;;5074787;28;20073;-63
2023/01/01 07:43:06;;;;;;;49.72;34.40;;;15.80;99.90;;;;;;5080419;28;20104;-64
2023/01/01 07:45:33;;;;;;;49.88;36.75;;;15.80;99.90;;;;;;5080228;28;20103;-64
2023/01/01 07:48:00;;;;;;;51.10;35.20;;;15.80;99.90;;;;;;5069953;28;20172;-63
2023/01/01 07:50:29;;;;;;;52.35;35.85;;;15.70;99.90;;;;;;5069394;28;20077;-62
2023/01/01 07:52:56;;;;;;;57.92;38.20;;;15.70;99.90;;;;;;5084168;28;20149;-61
2023/01/01 07:55:23;;;;;;;56.03;36.13;;;15.70;99.90;;;;;;5083614;28;20080;-64
2023/01/01 07:57:49;;;;;;;58.00;36.92;;;15.70;99.90;;;;;;5068666;28;20100;-64
2023/01/01 08:00:18;;;;;;;50.60;35.70;;;15.70;99.90;;;;;;5069597;28;20124;-62
2023/01/01 08:02:45;;;;;;;52.95;35.50;;;15.70;99.90;;;;;;5069436;28;20429;-63
2023/01/01 08:05:11;;;;;;;53.75;39.20;;;15.70;99.90;;;;;;5070083;28;20095;-62
2023/01/01 08:07:38;;;;;;;63.92;45.95;;;15.70;99.90;;;;;;5070020;28;20530;-62
2023/01/01 08:10:06;;;;;;;59.70;44.42;;;15.70;99.90;;;;;;5068565;28;20069;-64
2023/01/01 08:12:33;;;;;;;94.78;67.40;;;15.70;99.90;;;;;;5070578;28;20518;-64
2023/01/01 08:15:00;;;;;;;103.10;82.32;;;15.70;99.90;;;;;;5085796;28;20151;-62
2023/01/01 08:17:26;;;;;;;104.25;76.47;;;15.70;99.90;;;;;;5069699;28;20468;-64
2023/01/01 08:19:52;;;;;;;111.07;76.78;;;15.70;99.90;;;;;;5069050;28;20152;-63
2023/01/01 08:22:19;;;;;;;99.35;72.32;;;15.80;99.90;;;;;;5075773;28;20088;-64
2023/01/01 08:24:45;;;;;;;106.30;77.03;;;15.70;99.90;;;;;;5069619;28;20120;-64
2023/01/01 08:27:15;;;;;;;104.45;71.00;;;15.60;99.90;;;;;;5074310;28;20073;-64
2023/01/01 08:29:42;;;;;;;105.20;75.65;;;15.60;99.90;;;;;;5068894;28;20514;-63
2023/01/01 08:32:09;;;;;;;99.97;67.72;;;15.60;99.90;;;;;;5068872;28;20588;-64
2023/01/01 08:34:36;;;;;;;94.35;70.88;;;15.40;99.90;;;;;;5074820;28;20072;-62
2023/01/01 08:37:06;;;;;;;94.25;67.53;;;15.50;99.90;;;;;;5069935;28;20156;-64
2023/01/01 08:39:32;;;;;;;92.25;68.40;;;15.50;99.90;;;;;;5076952;28;20155;-64
2023/01/01 08:41:59;;;;;;;100.32;71.47;;;15.50;99.90;;;;;;5077405;28;20566;-64
2023/01/01 08:44:25;;;;;;;101.60;74.10;;;15.50;99.90;;;;;;5070815;28;20552;-63
2023/01/01 08:46:54;;;;;;;100.13;70.05;;;15.40;99.90;;;;;;5072159;28;20530;-63
2023/01/01 08:49:21;;;;;;;104.10;77.60;;;15.40;99.90;;;;;;5069512;28;20069;-63
2023/01/01 08:51:47;;;;;;;255.45;227.10;;;15.30;99.90;;;;;;5069054;28;20101;-64
2023/01/01 08:54:14;;;;;;;173.15;141.13;;;15.30;99.90;;;;;;5069921;28;20081;-63
2023/01/01 08:56:40;;;;;;;104.30;84.40;;;15.30;99.90;;;;;;5068572;28;20199;-64
2023/01/01 08:59:06;;;;;;;82.93;62.40;;;15.20;99.90;;;;;;5069897;28;20123;-64
2023/01/01 09:01:33;;;;;;;80.43;56.10;;;15.10;99.90;;;;;;5082258;28;20069;-61
2023/01/01 09:03:59;;;;;;;68.50;49.42;;;15.10;99.90;;;;;;5077328;28;20070;-62
2023/01/01 09:06:26;;;;;;;54.30;39.72;;;15.10;99.90;;;;;;5067545;28;20240;-62
2023/01/01 09:08:52;;;;;;;55.03;36.40;;;15.10;99.90;;;;;;5069283;28;20069;-64
2023/01/01 09:11:27;;;;;;;44.78;30.85;;;15.20;99.90;;;;;;5069002;28;20161;-64
2023/01/01 09:13:54;;;;;;;50.15;31.27;;;15.20;99.90;;;;;;5078619;28;20087;-62
2023/01/01 09:16:21;;;;;;;42.67;28.55;;;15.10;99.90;;;;;;5068400;28;20065;-63
2023/01/01 09:18:48;;;;;;;39.55;26.13;;;15.10;99.90;;;;;;5069449;28;20095;-62
2023/01/01 09:21:14;;;;;;;37.35;25.05;;;15.10;99.90;;;;;;5071657;28;20073;-63
2023/01/01 09:23:41;;;;;;;39.42;24.25;;;15.10;99.90;;;;;;5072268;28;20089;-63
2023/01/01 09:26:09;;;;;;;40.28;24.60;;;15.20;99.90;;;;;;5072511;28;20096;-62
2023/01/01 09:28:36;;;;;;;43.75;23.92;;;15.20;99.90;;;;;;5073423;28;20126;-63
2023/01/01 09:31:05;;;;;;;33.85;24.00;;;15.20;99.90;;;;;;5075314;28;20073;-62
2023/01/01 09:33:32;;;;;;;46.72;27.67;;;15.20;99.90;;;;;;5072971;28;20092;-63
2023/01/01 09:36:12;;;;;;;46.90;25.90;;;15.20;99.90;;;;;;5076366;28;20069;-64
2023/01/01 09:38:38;;;;;;;40.92;28.13;;;15.30;99.90;;;;;;5072692;28;20077;-62
2023/01/01 09:41:22;;;;;;;40.38;29.70;;;15.20;99.90;;;;;;5071875;28;21624;-63
2023/01/01 09:44:02;;;;;;;47.53;31.10;;;15.20;99.90;;;;;;5076252;28;20068;-63
2023/01/01 09:46:28;;;;;;;44.83;28.65;;;15.10;99.90;;;;;;5074388;28;20065;-61
2023/01/01 09:49:00;;;;;;;46.72;28.70;;;15.20;99.90;;;;;;5074068;28;20085;-62
2023/01/01 09:51:32;;;;;;;41.67;27.35;;;15.20;99.90;;;;;;5074222;28;20092;-64
2023/01/01 09:54:23;;;;;;;44.80;28.27;;;15.10;99.90;;;;;;5085679;28;20101;-64
2023/01/01 09:56:56;;;;;;;44.78;28.40;;;15.10;99.90;;;;;;5072191;28;20490;-63
2023/01/01 09:59:23;;;;;;;45.88;28.52;;;15.10;99.90;;;;;;5075579;28;20199;-62
2023/01/01 10:02:10;;;;;;;35.80;26.23;;;15.10;99.90;;;;;;5090275;28;20152;-63
2023/01/01 10:05:05;;;;;;;;;;;15.20;99.90;;;;;;5072793;28;20093;-64
2023/01/01 10:07:56;;;;;;;49.00;31.88;;;15.10;99.90;;;;;;5018926;28;19958;-61
2023/01/01 10:10:39;;;;;;;43.78;29.40;;;15.10;99.90;;;;;;5073157;28;20135;-63
2023/01/01 10:13:26;;;;;;;47.70;29.25;;;15.20;99.90;;;;;;5075848;28;20087;-64
2023/01/01 10:16:02;;;;;;;43.72;30.95;;;15.20;99.90;;;;;;5072671;28;20770;-64
2023/01/01 10:18:37;;;;;;;43.55;30.05;;;15.20;99.90;;;;;;5086936;28;20076;-65
2023/01/01 10:21:23;;;;;;;42.40;30.23;;;15.20;99.90;;;;;;5072333;28;20072;-59
2023/01/01 10:24:00;;;;;;;42.85;31.30;;;15.20;99.90;;;;;;5077585;28;20551;-63
2023/01/01 10:26:29;;;;;;;52.50;36.05;;;15.20;99.90;;;;;;5072153;28;20442;-63
2023/01/01 10:29:03;;;;;;;56.78;37.35;;;15.20;99.90;;;;;;5071106;28;20437;-62
2023/01/01 10:31:34;;;;;;;49.15;34.42;;;15.20;99.90;;;;;;5071848;28;20076;-61
2023/01/01 10:34:24;;;;;;;43.88;26.90;;;15.20;99.90;;;;;;5071236;28;20076;-63
2023/01/01 10:36:59;;;;;;;43.50;25.05;;;15.20;99.90;;;;;;5074689;28;20077;-63
2023/01/01 10:39:27;;;;;;;41.22;21.27;;;15.20;99.90;;;;;;5088645;28;20064;-62
2023/01/01 10:41:56;;;;;;;30.25;17.92;;;15.20;99.90;;;;;;5071381;28;20551;-63
2023/01/01 10:44:33;;;;;;;29.90;17.60;;;15.10;99.90;;;;;;5082795;28;20096;-63
2023/01/01 10:47:24;;;;;;;31.80;17.40;;;15.10;99.90;;;;;;5077137;28;20089;-62
2023/01/01 10:49:55;;;;;;;29.77;17.65;;;15.10;99.90;;;;;;5071104;28;20514;-62
2023/01/01 10:52:36;;;;;;;35.92;20.58;;;15.10;99.90;;;;;;5075765;28;20074;-63
2023/01/01 10:55:03;;;;;;;34.85;22.20;;;15.00;99.90;;;;;;5082546;28;20125;-62
2023/01/01 10:57:32;;;;;;;41.55;23.30;;;15.00;99.90;;;;;;5071722;28;20092;-63
2023/01/01 11:00:24;;;;;;;38.17;23.15;;;15.10;99.90;;;;;;5071708;28;20600;-60
2023/01/01 11:03:09;;;;;;;35.35;22.48;;;15.10;99.90;;;;;;5073005;28;20077;-61
2023/01/01 11:05:36;;;;;;;38.47;22.13;;;15.10;99.90;;;;;;5070866;28;20184;-63
2023/01/01 11:08:02;;;;;;;41.03;25.48;;;15.10;99.90;;;;;;5080509;28;20069;-63
2023/01/01 11:10:30;;;;;;;35.58;22.30;;;15.00;99.90;;;;;;5076667;28;20450;-63
2023/01/01 11:12:56;;;;;;;39.05;21.48;;;14.90;99.90;;;;;;5070096;28;20088;-63
2023/01/01 11:15:34;;;;;;;29.67;17.42;;;14.90;99.90;;;;;;5070755;28;20160;-63
2023/01/01 11:18:06;;;;;;;25.75;15.15;;;14.90;99.90;;;;;;5089228;28;20072;-63
2023/01/01 11:20:33;;;;;;;33.67;17.65;;;14.90;99.90;;;;;;5086856;28;20065;-64
2023/01/01 11:23:36;;;;;;;27.58;15.63;;;14.90;99.90;;;;;;5070300;28;20553;-62
2023/01/01 11:26:20;;;;;;;25.05;13.00;;;14.80;99.90;;;;;;5070452;28;20581;-62
2023/01/01 11:29:28;;;;;;;23.80;10.90;;;14.80;99.90;;;;;;5070613;28;20065;-62
2023/01/01 11:31:59;;;;;;;20.20;11.73;;;14.90;99.90;;;;;;5007979;28;20165;-62
2023/01/01 11:34:44;;;;;;;26.83;12.63;;;14.80;99.90;;;;;;5009181;28;20086;-63
2023/01/01 11:37:14;;;;;;;24.30;11.50;;;14.70;99.90;;;;;;5008532;28;20091;-62
2023/01/01 11:39:46;;;;;;;25.27;11.30;;;14.70;99.90;;;;;;5020906;28;20419;-64
2023/01/01 11:42:21;;;;;;;21.83;10.70;;;14.70;99.90;;;;;;5016464;28;20074;-62
2023/01/01 11:45:00;;;;;;;23.48;12.25;;;14.70;99.90;;;;;;5014236;28;20607;-64
2023/01/01 11:47:38;;;;;;;23.75;11.38;;;14.60;99.90;;;;;;5007713;28;20148;-65
2023/01/01 11:50:11;;;;;;;22.50;11.20;;;14.60;99.90;;;;;;5008321;28;20168;-63
2023/01/01 11:52:43;;;;;;;22.90;11.32;;;14.60;99.90;;;;;;5008949;28;20555;-61
2023/01/01 11:55:15;;;;;;;28.85;12.57;;;14.60;99.90;;;;;;5010143;28;20078;-61
2023/01/01 11:57:51;;;;;;;23.17;11.77;;;14.60;99.90;;;;;;5015942;28;20082;-60
2023/01/01 12:00:18;;;;;;;25.77;12.52;;;14.70;99.90;;;;;;5015092;28;20148;-62
2023/01/01 12:03:00;;;;;;;23.35;11.25;;;14.70;99.90;;;;;;5056107;28;20175;-64
2023/01/01 12:05:47;;;;;;;22.30;10.88;;;14.70;99.90;;;;;;5071006;28;20147;-63
2023/01/01 12:08:35;;;;;;;24.00;10.50;;;14.70;99.90;;;;;;5070032;28;20069;-62
2023/01/01 12:11:20;;;;;;;22.88;10.18;;;14.80;99.90;;;;;;5084561;28;20427;-63
2023/01/01 12:14:04;;;;;;;19.50;10.20;;;14.80;99.90;;;;;;5068946;28;20069;-63
2023/01/01 12:17:04;;;;;;;21.17;9.77;;;14.90;99.90;;;;;;5069111;28;20160;-62
2023/01/01 12:19:59;;;;;;;20.67;9.80;;;15.00;99.90;;;;;;5070933;28;20076;-64
2023/01/01 12:22:26;;;;;;;26.77;10.18;;;15.00;99.90;;;;;;5083886;28;20075;-63
2023/01/01 12:24:53;;;;;;;23.90;9.73;;;15.00;99.90;;;;;;5069315;28;20097;-62
2023/01/01 12:27:35;;;;;;;27.50;11.32;;;15.00;99.90;;;;;;5073184;28;20088;-62
2023/01/01 12:30:43;;;;;;;19.13;10.02;;;15.00;99.90;;;;;;5069997;28;20152;-62
2023/01/01 12:33:31;;;;;;;23.73;10.93;;;15.00;99.90;;;;;;5050907;28;20094;-62
2023/01/01 12:36:19;;;;;;;22.20;12.02;;;15.00;99.90;;;;;;5088035;28;20078;-64
2023/01/01 12:39:07;;;;;;;24.20;10.65;;;15.00;99.90;;;;;;5086584;28;20176;-64
2023/01/01 12:41:58;;;;;;;23.60;11.18;;;15.00;99.90;;;;;;5068923;28;20086;-64
2023/01/01 12:44:49;;;;;;;21.20;11.23;;;14.90;99.90;;;;;;5068787;28;20172;-62
2023/01/01 12:47:43;;;;;;;19.00;10.75;;;14.80;99.90;;;;;;5068072;28;20462;-62
2023/01/01 12:50:48;;;;;;;21.48;10.98;;;14.80;99.90;;;;;;5067724;28;20065;-65
2023/01/01 12:53:34;;;;;;;24.23;12.57;;;14.80;99.90;;;;;;5007033;28;20556;-65
2023/01/01 12:56:13;;;;;;;24.02;12.25;;;14.70;99.90;;;;;;5010063;28;20136;-60
2023/01/01 12:58:54;;;;;;;21.73;12.55;;;14.70;99.90;;;;;;5014527;28;20101;-63
2023/01/01 13:01:26;;;;;;;29.92;15.07;;;14.70;99.90;;;;;;5020838;28;20097;-63